Time;durP1;ratioP1;P1;durP2;ratioP2;P2;SDS_P1;SDS_P2;PMS_P1;PMS_P2;Temp;Humidity;BMP_temperature;BMP_pressure;BME280_temperature;BME280_humidity;BME280_pressure;Samples;Min_cycle;Max_cycle;Signal;HPM_P1;HPM_P2
2021/03/27 00:01:25;;;;;;;45.15;28.35;;;;;;;4.67;59.65;95215.15;835970;70;31482;-86
2021/03/27 00:16:39;;;;;;;50.67;30.37;;;;;;;4.54;60.65;95209.73;801233;74;32930;-86
2021/03/27 00:31:34;;;;;;;;;;;;;;;;;;;;;
2021/03/27 00:46:44;;;;;;;49.93;30.15;;;;;;;4.35;60.83;95196.09;817159;72;32740;-86
2021/03/27 01:01:31;;;;;;;39.33;26.90;;;;;;;4.22;60.48;95182.09;828914;70;32786;-86
2021/03/27 01:16:21;;;;;;;40.40;26.75;;;;;;;4.05;60.90;95187.70;829163;71;32860;-84
2021/03/27 01:31:18;;;;;;;36.98;21.45;;;;;;;3.95;61.17;95194.77;831902;71;30040;-86
2021/03/27 01:46:33;;;;;;;26.30;19.60;;;;;;;3.63;60.59;95204.23;829732;70;32962;-84
2021/03/27 02:01:19;;;;;;;32.13;20.45;;;;;;;3.54;61.57;95197.28;794618;74;32852;-85
2021/03/27 02:16:37;;;;;;;28.55;18.62;;;;;;;3.50;62.28;95201.86;808314;73;32932;-87
2021/03/27 02:31:35;;;;;;;29.82;17.90;;;;;;;3.24;62.38;95190.10;832400;71;32735;-85
2021/03/27 03:16:47;;;;;;;;;;;;;;;;;;;;;
2021/03/27 03:31:28;;;;;;;38.80;23.90;;;;;;;3.06;63.55;95229.86;828314;71;31834;-86
2021/03/27 03:46:35;;;;;;;39.58;26.20;;;;;;;2.99;63.95;95245.52;829445;71;32176;-87
2021/03/27 04:01:38;;;;;;;40.83;25.08;;;;;;;2.92;64.26;95249.50;802063;71;31907;-84
2021/03/27 04:16:22;;;;;;;35.58;23.65;;;;;;;2.83;64.68;95248.22;829777;70;31916;-85
2021/03/27 04:31:14;;;;;;;38.17;23.18;;;;;;;2.83;64.64;95261.69;834531;71;30423;-87
2021/03/27 04:46:42;;;;;;;32.98;23.00;;;;;;;4.99;60.34;95275.27;829419;70;31776;-86
2021/03/27 05:01:44;;;;;;;37.05;24.32;;;;;;;8.02;52.21;95281.63;826194;70;29338;-86
2021/03/27 05:16:22;;;;;;;35.60;24.40;;;;;;;10.03;47.17;95291.64;785672;73;32128;-87
2021/03/27 05:31:31;;;;;;;39.90;29.00;;;;;;;11.76;0.00;161751.31;821576;71;31906;-85
2021/03/27 05:46:29;;;;;;;43.98;32.05;;;;;;;13.36;39.95;95297.72;829367;71;28707;-85
2021/03/27 06:01:33;;;;;;;51.68;39.08;;;;;;;14.72;37.03;95294.21;829499;71;31022;-85
2021/03/27 06:16:21;;;;;;;47.93;37.90;;;;;;;15.21;36.34;95304.62;835727;70;31769;-86
2021/03/27 06:31:33;;;;;;;54.85;41.55;;;;;;;15.72;35.26;95302.20;834009;71;28749;-76
2021/03/27 06:46:35;;;;;;;49.67;37.05;;;;;;;15.68;34.65;95320.27;828074;71;31723;-76
2021/03/27 07:01:45;;;;;;;40.55;32.60;;;;;;;16.35;33.69;95311.56;827124;71;31879;-76
2021/03/27 07:16:38;;;;;;;39.27;32.58;;;;;;;16.65;31.95;95313.96;827878;71;30033;-77
2021/03/27 09:01:51;;;;;;;26.45;21.70;;;;;;;20.52;27.78;95309.47;828109;71;28994;-77
2021/03/27 09:16:38;;;;;;;26.77;22.98;;;;;;;19.69;27.58;95309.82;833956;71;31845;-78
2021/03/27 09:31:20;;;;;;;25.97;22.77;;;;;;;21.20;26.58;95294.30;827500;71;32711;-82
2021/03/27 09:46:47;;;;;;;31.20;25.95;;;;;;;22.12;25.36;95293.27;828568;71;30273;-82
2021/03/27 10:01:41;;;;;;;28.50;25.23;;;;;;;22.58;25.11;95291.05;827694;71;32781;-78
2021/03/27 10:16:54;;;;;;;27.67;23.67;;;;;;;21.01;25.28;95270.86;823236;71;32805;-83
2021/03/27 10:31:20;;;;;;;30.57;27.13;;;;;;;21.48;25.25;95269.02;827865;71;32736;-80
2021/03/27 10:46:20;;;;;;;28.30;23.35;;;;;;;21.89;25.06;95248.95;829583;71;32015;-80
2021/03/27 11:01:47;;;;;;;27.85;24.85;;;;;;;21.38;24.15;95256.12;828447;71;33135;-83
2021/03/27 11:16:47;;;;;;;13.08;10.75;;;;;;;20.78;24.46;95226.50;827733;71;33198;-81
2021/03/27 11:31:26;;;;;;;8.23;7.30;;;;;;;22.05;22.59;95227.61;828528;71;32699;-82
2021/03/27 11:46:32;;;;;;;12.30;7.92;;;;;;;22.13;22.26;95221.33;828744;71;30197;-82
2021/03/27 12:01:10;;;;;;;9.53;8.57;;;;;;;22.38;22.49;95203.24;828813;71;29730;-83
2021/03/27 12:16:41;;;;;;;8.45;7.58;;;;;;;22.22;22.38;95189.84;834411;71;32739;-81
2021/03/27 12:31:31;;;;;;;9.40;7.20;;;;;;;21.95;22.33;95179.44;828797;71;32000;-82
2021/03/27 12:46:48;;;;;;;8.30;6.95;;;;;;;21.17;22.96;95177.55;834507;71;32749;-83
2021/03/27 13:01:31;;;;;;;8.88;7.97;;;;;;;20.96;23.51;95173.69;820236;71;30300;-81
2021/03/27 13:16:49;;;;;;;8.53;7.65;;;;;;;20.57;24.39;95159.94;816181;71;32839;-83
2021/03/27 13:31:23;;;;;;;9.63;7.47;;;;;;;20.19;24.68;95145.05;834233;71;32753;-85
2021/03/27 13:46:15;;;;;;;7.65;6.95;;;;;;;19.73;25.39;95130.47;794394;74;30333;-87
2021/03/27 14:16:17;;;;;;;8.75;7.85;;;;;;;18.62;26.61;95107.35;828519;71;32722;-81
2021/03/27 14:31:32;;;;;;;8.35;7.65;;;;;;;18.15;27.49;95105.39;827896;71;32804;-83
2021/03/27 14:46:57;;;;;;;8.28;7.47;;;;;;;17.71;28.08;95092.25;828365;71;33577;-83
2021/03/27 15:16:26;;;;;;;8.30;7.50;;;;;;;17.05;28.84;95085.91;781995;74;32971;-83
2021/03/27 15:31:34;;;;;;;8.75;7.62;;;;;;;16.79;29.11;95095.97;836067;70;32531;-82
2021/03/27 15:46:33;;;;;;;12.35;7.83;;;;;;;16.40;29.61;95096.34;835014;71;32710;-77
2021/03/27 16:01:17;;;;;;;8.70;7.80;;;;;;;16.05;30.12;95101.30;828212;71;32721;-78
2021/03/27 16:16:20;;;;;;;9.38;8.45;;;;;;;15.42;30.99;95077.52;834635;71;30753;-78
2021/03/27 16:31:20;;;;;;;13.55;8.95;;;;;;;15.01;33.35;95124.23;833714;71;30173;-80
2021/03/27 16:46:34;;;;;;;18.40;12.80;;;;;;;14.37;35.60;95130.84;834307;71;32338;-79
2021/03/27 19:01:41;;;;;;;35.50;25.17;;;;;;;10.90;45.25;95245.50;783531;73;32967;-84
